Flight Track Log - Related Links

Times and Time Zones

All times are in EDT time to prevent confusion due to time zone crossing. See the UPS1121 flight status page for this flight to view local times or setup timezone preferences in your user account.

Time Position Orientation Groundspeed Altitude Reporting Facility
EDT Latitude Longitude Course Direction KTS MPH feet Rate Location/Type
Mon 09:57:46 PM 41.9375 -72.6911 129° Southeast 111 128 1,100  Level Boston Center
Mon 09:59:18 PM 41.8747 -72.7608 220° Southwest 205 236 5,300 2,960 Climbing Boston Center
Mon 10:00:16 PM 41.8081 -72.7158 153° Southeast 205 236 8,500 2,222 Climbing Boston Center
Mon 10:03:00 PM 41.5201 -72.3558 129° Southeast  Level FlightAware Approximate
Mon 10:05:55 PM 41.2470 -72.5380 153° Southeast 385 443 20,000  Level FlightAware ADS-B
Mon 10:06:28 PM 41.1970 -72.5780 211° Southwest 380 437 20,000  Level FlightAware ADS-B
Mon 10:07:10 PM 41.1340 -72.6300 212° Southwest 384 442 20,000  Level FlightAware ADS-B
Mon 10:07:45 PM 41.0860 -72.6700 212° Southwest 381 438 20,000  Level FlightAware ADS-B
Mon 10:08:20 PM 41.0320 -72.7150 212° Southwest 382 440 20,000  Level FlightAware ADS-B
Mon 10:09:00 PM 40.9750 -72.7610 211° Southwest 380 437 20,000  Level FlightAware ADS-B
Mon 10:09:35 PM 40.9130 -72.8060 209° Southwest 386 444 20,000  Level FlightAware ADS-B
Mon 10:10:11 PM 40.8513 -72.8367 201° Southwest 388 447 20,000  Level FlightAware ADS-B
Mon 10:10:41 PM 40.8007 -72.8611 200° South 383 441 20,000  Level FlightAware ADS-B
Mon 10:11:12 PM 40.7489 -72.8860 200° South 381 438 20,000  Level FlightAware ADS-B
Mon 10:11:42 PM 40.6993 -72.9100 200° South 379 436 20,000  Level FlightAware ADS-B
Mon 10:12:14 PM 40.6465 -72.9354 200° South 379 436 20,000  Level FlightAware ADS-B
Mon 10:12:46 PM 40.5943 -72.9605 200° South 379 436 20,000  Level FlightAware ADS-B
Mon 10:13:19 PM 40.5395 -72.9868 200° South 380 437 20,000  Level FlightAware ADS-B
Mon 10:13:49 PM 40.4891 -73.0109 200° South 381 438 20,000  Level FlightAware ADS-B
Mon 10:14:21 PM 40.4367 -73.0359 200° South 382 440 20,000  Level FlightAware ADS-B
Mon 10:14:53 PM 40.3838 -73.0611 200° South 383 441 20,000  Level FlightAware ADS-B
Mon 10:15:26 PM 40.3281 -73.0876 200° South 383 441 20,000  Level FlightAware ADS-B
Mon 10:16:00 PM 40.2810 -73.1100 200° South 382 440 20,000  Level FlightAware ADS-B
Mon 10:16:10 PM 40.2553 -73.1279 208° Southwest 378 435 20,000  Level FlightAware ADS-B
Mon 10:16:33 PM 40.2241 -73.1595 218° Southwest 376 433 20,000  Level FlightAware ADS-B
Mon 10:17:05 PM 40.1847 -73.2070 223° Southwest 376 433 20,000  Level FlightAware ADS-B
Mon 10:17:37 PM 40.1433 -73.2572 223° Southwest 377 434 20,000  Level FlightAware ADS-B
Mon 10:18:18 PM 40.0901 -73.3211 223° Southwest 378 435 20,000  Level FlightAware ADS-B
Mon 10:18:51 PM 40.0484 -73.3711 223° Southwest 378 435 20,000  Level FlightAware ADS-B
Mon 10:19:22 PM 40.0074 -73.4199 222° Southwest 377 434 20,000  Level FlightAware ADS-B
Mon 10:19:53 PM 39.9681 -73.4668 222° Southwest 377 434 20,000  Level FlightAware ADS-B
Mon 10:20:23 PM 39.9294 -73.5127 222° Southwest 377 434 20,000  Level FlightAware ADS-B
Mon 10:20:32 PM 39.9186 -73.5257 223° Southwest 378 435 20,000  Level FlightAware ADS-B
Mon 10:21:02 PM 39.8827 -73.5762 227° Southwest 376 433 20,000  Level FlightAware ADS-B
Mon 10:21:32 PM 39.8498 -73.6287 231° Southwest 376 433 20,000  Level FlightAware ADS-B
Mon 10:22:02 PM 39.8165 -73.6819 231° Southwest 376 433 20,000  Level FlightAware ADS-B
Mon 10:22:33 PM 39.7832 -73.7348 231° Southwest 377 434 20,000  Level FlightAware ADS-B
Mon 10:23:03 PM 39.7491 -73.7886 231° Southwest 377 434 20,000  Level FlightAware ADS-B
Mon 10:23:34 PM 39.7156 -73.8416 231° Southwest 372 428 20,000 -295 Level FlightAware ADS-B
Mon 10:24:04 PM 39.6835 -73.8922 231° Southwest 355 409 19,700 -1,400 Descending FlightAware ADS-B
Mon 10:24:34 PM 39.6525 -73.9410 230° Southwest 347 399 18,600 -2,226 Descending FlightAware ADS-B
Mon 10:25:06 PM 39.6198 -73.9923 230° Southwest 342 394 17,400 -2,250 Descending FlightAware ADS-B
Mon 10:25:38 PM 39.5884 -74.0414 230° Southwest 337 388 16,200 -2,129 Descending FlightAware ADS-B
Mon 10:26:08 PM 39.5589 -74.0875 230° Southwest 332 382 15,200 -2,087 Descending FlightAware ADS-B
Mon 10:26:24 PM 39.5429 -74.1129 231° Southwest 329 379 14,600 -2,077 Descending FlightAware ADS-B
Mon 10:26:34 PM 39.5354 -74.1282 238° Southwest 329 379 14,300 -1,500 Descending FlightAware ADS-B
Mon 10:26:44 PM 39.5293 -74.1479 248° West 339 390 14,100 -947 Descending FlightAware ADS-B
Mon 10:26:53 PM 39.5264 -74.1664 259° West 347 399 14,000 -316 Descending FlightAware ADS-B
Mon 10:27:03 PM 39.5258 -74.1861 268° West 351 404 14,000  Level FlightAware ADS-B
Mon 10:27:28 PM 39.5264 -74.2392 271° West 353 406 14,000  Level FlightAware ADS-B
Mon 10:27:58 PM 39.5278 -74.3033 272° West 353 406 14,000 -197 Level FlightAware ADS-B
Mon 10:28:29 PM 39.5289 -74.3677 271° West 348 400 13,800 -1,377 Descending FlightAware ADS-B
Mon 10:28:59 PM 39.5298 -74.4298 271° West 342 394 12,600 -2,419 Descending FlightAware ADS-B
Mon 10:29:31 PM 39.5307 -74.4951 271° West 330 380 11,300 -1,810 Descending FlightAware ADS-B
Mon 10:30:02 PM 39.5314 -74.5530 271° West 300 345 10,700 -952 Descending FlightAware ADS-B
Mon 10:30:34 PM 39.5321 -74.6057 271° West 273 314 10,300 -984 Descending FlightAware ADS-B
Mon 10:31:03 PM 39.5327 -74.6523 271° West 265 305 9,700 -1,304 Descending FlightAware ADS-B
Mon 10:31:20 PM 39.5332 -74.6783 271° West 262 302 9,300 -1,273 Descending FlightAware ADS-B
Mon 10:31:36 PM 39.5337 -74.7039 271° West 269 310 9,000 -563 Descending FlightAware ADS-B
Mon 10:31:52 PM 39.5341 -74.7297 271° West 269 310 9,000  Level FlightAware ADS-B
Mon 10:32:11 PM 39.5345 -74.7600 271° West 270 311 9,000  Level FlightAware ADS-B
Mon 10:32:28 PM 39.5348 -74.7878 271° West 270 311 9,000  Level FlightAware ADS-B
Mon 10:32:43 PM 39.5351 -74.8124 271° West 270 311 9,000  Level FlightAware ADS-B
Mon 10:32:58 PM 39.5356 -74.8373 271° West 269 310 9,000  Level FlightAware ADS-B
Mon 10:33:18 PM 39.5365 -74.8685 272° West 270 311 9,000 -194 Level FlightAware ADS-B
Mon 10:33:29 PM 39.5395 -74.8865 282° West 268 308 8,900 -429 Descending FlightAware ADS-B
Mon 10:33:32 PM 39.5410 -74.8908 294° West 267 307 8,900 -667 Level FlightAware ADS-B
Mon 10:33:38 PM 39.5446 -74.8985 301° West 266 306 8,800 -1,333 Descending FlightAware ADS-B
Mon 10:33:41 PM 39.5470 -74.9022 310° West 267 307 8,700 -1,714 Descending FlightAware ADS-B
Mon 10:33:45 PM 39.5506 -74.9067 316° Northwest 268 308 8,600 -1,333 Descending FlightAware ADS-B
Mon 10:33:50 PM 39.5560 -74.9118 324° Northwest 268 308 8,500 -1,333 Descending FlightAware ADS-B
Mon 10:33:54 PM 39.5603 -74.9146 333° Northwest 271 312 8,400 -1,333 Descending FlightAware ADS-B
Mon 10:33:59 PM 39.5663 -74.9174 340° North 273 314 8,300 -1,200 Descending FlightAware ADS-B
Mon 10:34:09 PM 39.5794 -74.9205 350° North 275 316 8,100 -1,429 Descending FlightAware ADS-B
Mon 10:34:20 PM 39.5926 -74.9221 355° North 275 316 7,800 -1,556 Descending FlightAware ADS-B
Mon 10:34:36 PM 39.6133 -74.9245 355° North 274 315 7,400 -1,313 Descending FlightAware ADS-B
Mon 10:34:52 PM 39.6330 -74.9272 354° North 273 314 7,100 -1,355 Descending FlightAware ADS-B
Mon 10:35:07 PM 39.6518 -74.9297 354° North 271 312 6,700 -1,400 Descending FlightAware ADS-B
Mon 10:35:22 PM 39.6706 -74.9325 353° North 269 310 6,400 -1,400 Descending FlightAware ADS-B
Mon 10:35:37 PM 39.6898 -74.9357 353° North 267 307 6,000 -1,548 Descending FlightAware ADS-B
Mon 10:35:53 PM 39.7088 -74.9390 352° North 266 306 5,600 -1,548 Descending FlightAware ADS-B
Mon 10:36:08 PM 39.7277 -74.9422 353° North 266 306 5,200 -1,800 Descending FlightAware ADS-B
Mon 10:36:23 PM 39.7460 -74.9456 352° North 266 306 4,700 -1,600 Descending FlightAware ADS-B
Mon 10:36:38 PM 39.7643 -74.9490 352° North 266 306 4,400 -1,250 Descending FlightAware ADS-B
Mon 10:36:47 PM 39.7760 -74.9511 352° North 265 305 4,200 -1,000 Descending FlightAware ADS-B
Mon 10:37:02 PM 39.7934 -74.9542 352° North 258 297 4,000 -632 Descending FlightAware ADS-B
Mon 10:37:06 PM 39.7981 -74.9546 356° North 257 296 4,000  Level FlightAware ADS-B
Mon 10:37:10 PM 39.8026 -74.9547 359° North 254 292 4,000  Level FlightAware ADS-B
Mon 10:37:16 PM 39.8101 -74.9536 North 250 288 4,000  Level FlightAware ADS-B
Mon 10:37:41 PM 39.8380 -74.9459 12° North 229 264 4,000  Level FlightAware ADS-B
Mon 10:37:56 PM 39.8536 -74.9410 14° North 226 260 4,000  Level FlightAware ADS-B
Mon 10:38:06 PM 39.8627 -74.9382 13° North 224 258 4,000  Level FlightAware ADS-B
Mon 10:38:21 PM 39.8776 -74.9337 13° North 211 243 4,000  Level FlightAware ADS-B
Mon 10:38:46 PM 39.9008 -74.9267 13° North 207 238 4,000  Level FlightAware ADS-B
Mon 10:38:52 PM 39.9065 -74.9260 North 204 235 4,000  Level FlightAware ADS-B
Mon 10:38:58 PM 39.9117 -74.9268 353° North 201 231 4,000  Level FlightAware ADS-B
Mon 10:39:01 PM 39.9147 -74.9280 343° North 200 230 4,000  Level FlightAware ADS-B
Mon 10:39:05 PM 39.9177 -74.9299 334° Northwest 199 229 4,000  Level FlightAware ADS-B
Mon 10:39:08 PM 39.9204 -74.9324 325° Northwest 197 227 4,000  Level FlightAware ADS-B
Mon 10:39:13 PM 39.9232 -74.9361 315° West 195 224 4,000  Level FlightAware ADS-B
Mon 10:39:16 PM 39.9248 -74.9390 306° West 194 223 4,000  Level FlightAware ADS-B
Mon 10:39:19 PM 39.9263 -74.9430 296° West 194 223 4,000  Level FlightAware ADS-B
Mon 10:39:24 PM 39.9272 -74.9482 283° West 192 221 4,000 -667 Level FlightAware ADS-B
Mon 10:39:28 PM 39.9273 -74.9528 272° West 192 221 3,900 -667 Descending FlightAware ADS-B
Mon 10:39:33 PM 39.9265 -74.9588 260° West 192 221 3,900 -706 Level FlightAware ADS-B
Mon 10:39:45 PM 39.9243 -74.9724 258° West 191 220 3,700 -818 Descending FlightAware ADS-B
Mon 10:39:55 PM 39.9226 -74.9834 259° West 189 217 3,600 -720 Descending FlightAware ADS-B
Mon 10:40:10 PM 39.9194 -74.9997 256° West 185 213 3,400 -923 Descending FlightAware ADS-B
Mon 10:40:21 PM 39.9170 -75.0118 256° West 186 214 3,200 -1,111 Descending FlightAware ADS-B
Mon 10:40:37 PM 39.9137 -75.0288 256° West 187 215 2,900 -1,071 Descending FlightAware ADS-B
Mon 10:40:49 PM 39.9109 -75.0425 255° West 187 215 2,700 -857 Descending FlightAware ADS-B
Mon 10:41:05 PM 39.9077 -75.0591 256° West 181 208 2,500 -750 Descending FlightAware ADS-B
Mon 10:41:21 PM 39.9044 -75.0755 255° West 168 193 2,300 -938 Descending FlightAware ADS-B
Mon 10:41:37 PM 39.9015 -75.0903 256° West 155 178 2,000 -968 Descending FlightAware ADS-B
Mon 10:41:52 PM 39.8989 -75.1034 255° West 135 155 1,800 -563 Descending FlightAware ADS-B
Mon 10:42:09 PM 39.8965 -75.1153 255° West 119 137 1,700 -522 Descending FlightAware ADS-B
Mon 10:42:15 PM 39.8956 -75.1197 255° West 117 135 1,600 -706 Descending FlightAware ADS-B
Mon 10:42:26 PM 39.8943 -75.1265 256° West 116 133 1,500 -667 Descending FlightAware ADS-B
Mon 10:42:33 PM 39.8933 -75.1314 255° West 117 135 1,400 -522 Descending FlightAware ADS-B
Mon 10:42:49 PM 39.8913 -75.1421 256° West 116 133 1,300 -621 Descending FlightAware ADS-B
Mon 10:43:02 PM 39.8897 -75.1509 257° West 117 135 1,100 -643 Descending FlightAware ADS-B
Mon 10:43:17 PM 39.8876 -75.1615 256° West 117 135 1,000 -581 Descending FlightAware ADS-B
Mon 10:43:33 PM 39.8853 -75.1725 255° West 119 137 800 -667 Descending FlightAware ADS-B
Mon 10:43:44 PM 39.8838 -75.1799 255° West 119 137 700 -563 Descending FlightAware ADS-B
Mon 10:44:05 PM 39.8809 -75.1944 255° West 119 137 500 -667 Descending FlightAware ADS-B
Mon 10:44:20 PM 39.8788 -75.2051 256° West 121 139 300 -222 Descending FlightAware ADS-B
Mon 10:44:59 PM 39.8740 -75.2270 254° West 121 139 300  Level FlightAware ADS-B

Login

Don't have an account? Register now (free) for customized features, flight alerts, and more!